Harlowton, Montana
Current Conditions -  °F | °C
As of 2:54 PM on Monday 26 Jan 2015 (Local Time) from KLWT Reporting Station
Clear Clear  
Wind Chill: 53°   Ceiling: Unl
Heat Index: 53°   Visibility: 10mi
Dew Point: 32°   Wind: 17mph
Humidity: 45%   Direction: 230°SW
Pressure: 29.99"   Gusts: NA
Location:  46.44°N, 109.83°W
Report Text: KLWT 262154Z AUTO 23015KT 10SM CLR 12/00 A2999 RMK AO2 SLP148 T01170000
Loading
Personal Weather Stations






























Interactive Weather Map New forecast layout! Learn more

10-Day Weather Forecast

Advertisements
Track Severe Weather on mobile